Platitera Tonouranon — SX7180 — position and weather

sailwx.info

Track history (hours):
 
Tides and Currents Weather Stations Pressure Air Temp Water Temp Dewpoint Dewpoint Depression Visibility Wind Speed Wind Dir Waves Ship Positions

Platitera Tonouranon

Last reported at 2016-Jun-29 04:34 UTC. Time now 2016-Jun-29 05:42 UTC.
Position N 37°56' E 023°41'.

Length 55 m; draft 3.8 m.

Type: Ship (hazmat cat A). MMSI: 237038200.

Date/timePositionNaut miles runAvg speedWind from/ knotsBaromVisibWave heightAir tempDewpointWater temp
2016-Jun-29 04:34N 37°56' E 023°41'0 0.0
2016-Jun-29 03:33N 37°56' E 023°41'0 0.0
2016-Jun-28 19:33N 37°56' E 023°41'0 0.0
2016-Jun-28 18:33N 37°56' E 023°41'0 0.0
2016-Jun-28 17:33N 37°56' E 023°41'2 2.4
2016-Jun-28 16:33N 37°55' E 023°39'1211.6
2016-Jun-28 15:33N 37°47' E 023°28'3 2.8
2016-Jun-28 14:33N 37°45' E 023°26'0 0.0
2016-Jun-28 13:33N 37°45' E 023°26'8 7.8
2016-Jun-28 12:33N 37°37' E 023°25'7 7.1
2016-Jun-28 11:33N 37°30' E 023°27'5 5.4
2016-Jun-28 10:33N 37°26' E 023°32'6 6.1
2016-Jun-28 09:33N 37°21' E 023°28'0 0.1
2016-Jun-28 08:33N 37°21' E 023°28'1110.6
2016-Jun-28 07:33N 37°31' E 023°32'1111.3
2016-Jun-28 06:33N 37°43' E 023°33'15 7.4
2016-Jun-28 04:33N 37°56' E 023°41'0 0.0
2016-Jun-28 03:32N 37°56' E 023°41'0 0.0
2016-Jun-27 20:34N 37°56' E 023°41'0 0.0
2016-Jun-27 19:34N 37°56' E 023°41'0 0.0
2016-Jun-27 18:34N 37°56' E 023°41'0 0.0
2016-Jun-27 17:33N 37°56' E 023°41'2 2.5
2016-Jun-27 16:33N 37°55' E 023°39'1111.4
2016-Jun-27 15:33N 37°48' E 023°27'3 3.0
2016-Jun-27 14:32N 37°45' E 023°26'0 0.0
2016-Jun-27 13:32N 37°45' E 023°26'7 7.1
2016-Jun-27 12:33N 37°38' E 023°25'8 7.8
2016-Jun-27 11:33N 37°30' E 023°27'5 5.0
2016-Jun-27 10:33N 37°27' E 023°32'6 6.4
2016-Jun-27 09:33N 37°21' E 023°28'0 0.0
2016-Jun-27 08:33N 37°21' E 023°28'1010.5
2016-Jun-27 07:33N 37°31' E 023°32'1111.3
2016-Jun-27 06:33N 37°42' E 023°34'1211.8
2016-Jun-27 05:33N 37°53' E 023°39'3 3.2
2016-Jun-27 04:33N 37°56' E 023°41'0 0.0
2016-Jun-27 03:33N 37°56' E 023°41'0 0.0
2016-Jun-26 20:33N 37°56' E 023°41'0 0.0
2016-Jun-26 19:33N 37°56' E 023°41'0 0.0
2016-Jun-26 18:33N 37°56' E 023°41'0 0.0
2016-Jun-26 17:33N 37°56' E 023°41'7 6.9
2016-Jun-26 16:33N 37°52' E 023°34'10 4.6
2016-Jun-26 14:22N 37°45' E 023°26'0 0.3
2016-Jun-26 13:33N 37°45' E 023°25'1211.7
2016-Jun-26 12:33N 37°34' E 023°30'1110.7
2016-Jun-26 11:33N 37°23' E 023°29'2 2.0
2016-Jun-26 10:33N 37°21' E 023°28'6 5.4
2016-Jun-26 09:25N 37°26' E 023°32'5 6.3
2016-Jun-26 08:33N 37°30' E 023°27'3 2.7
2016-Jun-26 07:32N 37°33' E 023°26'1211.7
2016-Jun-26 06:33N 37°43' E 023°33'1211.9
2016-Jun-26 05:33N 37°53' E 023°39'3 3.1
2016-Jun-26 04:33N 37°56' E 023°41'0 0.0
2016-Jun-26 03:33N 37°56' E 023°41'0 0.0
2016-Jun-25 21:08N 37°56' E 023°41'0 0.0
2016-Jun-25 20:33N 37°56' E 023°41'0 0.0
2016-Jun-25 19:33N 37°56' E 023°41'0 0.0
2016-Jun-25 17:17N 37°56' E 023°41'2 3.1
2016-Jun-25 16:34N 37°54' E 023°40'1111.5
2016-Jun-25 15:33N 37°43' E 023°36'1212.0
2016-Jun-25 14:33N 37°31' E 023°33'1110.7
2016-Jun-25 13:33N 37°21' E 023°28'0 0.1
2016-Jun-25 12:33N 37°21' E 023°28'6 6.5
2016-Jun-25 11:33N 37°27' E 023°32'5 4.9
2016-Jun-25 10:33N 37°30' E 023°27'7 7.4
2016-Jun-25 09:34N 37°37' E 023°25'10 3.2
2016-Jun-25 06:33N 37°47' E 023°26'1211.7
2016-Jun-25 05:34N 37°54' E 023°38'3 3.4
2016-Jun-25 04:34N 37°56' E 023°41'0 0.0
2016-Jun-25 03:34N 37°56' E 023°41'0 0.0
2016-Jun-24 20:20N 37°56' E 023°41'0 0.0
2016-Jun-24 19:33N 37°56' E 023°41'0 0.0
2016-Jun-24 18:33N 37°56' E 023°41'0 0.0
2016-Jun-24 17:33N 37°56' E 023°41'2 1.9
2016-Jun-24 16:33N 37°55' E 023°39'1111.4
2016-Jun-24 15:33N 37°48' E 023°28'4 1.6
2016-Jun-24 13:09N 37°45' E 023°25'711.1
2016-Jun-24 12:33N 37°38' E 023°26'8 8.1
2016-Jun-24 11:33N 37°30' E 023°27'4 4.3
2016-Jun-24 10:33N 37°27' E 023°31'7 6.7
2016-Jun-24 09:31N 37°21' E 023°28'0 0.0
2016-Jun-24 08:33N 37°21' E 023°28'9 9.1
2016-Jun-24 07:33N 37°30' E 023°32'27 9.2
2016-Jun-24 04:33N 37°56' E 023°41'0 0.0
2016-Jun-24 03:33N 37°56' E 023°41'0 0.0
2016-Jun-24 02:33N 37°56' E 023°41'0 0.0
2016-Jun-24 01:33N 37°56' E 023°41'0 0.0
2016-Jun-24 00:33N 37°56' E 023°41'0 0.0
2016-Jun-23 23:33N 37°56' E 023°41'0 0.0
2016-Jun-23 22:33N 37°56' E 023°41'0 0.0
2016-Jun-23 21:33N 37°56' E 023°41'0 0.0
2016-Jun-23 20:33N 37°56' E 023°41'0 0.0
2016-Jun-23 19:33N 37°56' E 023°41'0 0.0
2016-Jun-23 18:33N 37°56' E 023°41'0 0.0
2016-Jun-23 17:33N 37°56' E 023°41'2 2.0
2016-Jun-23 16:33N 37°55' E 023°39'1111.3
2016-Jun-23 15:33N 37°48' E 023°28'4 1.6
2016-Jun-23 13:10N 37°45' E 023°25'711.2
2016-Jun-23 12:33N 37°38' E 023°25'8 7.9
2016-Jun-23 11:33N 37°30' E 023°27'4 4.2
2016-Jun-23 10:33N 37°28' E 023°31'7 4.7
2016-Jun-23 09:04N 37°21' E 023°28'0 0.0
2016-Jun-23 08:32N 37°21' E 023°28'9 9.3
2016-Jun-23 07:33N 37°30' E 023°31'2411.8
2016-Jun-23 05:33N 37°53' E 023°39'4 3.9
2016-Jun-23 04:33N 37°56' E 023°41'0 0.0
2016-Jun-23 03:33N 37°56' E 023°41'0 0.0
2016-Jun-22 21:30N 37°56' E 023°41'0 0.0
2016-Jun-22 20:34N 37°56' E 023°41'0 0.0
2016-Jun-22 19:33N 37°56' E 023°41'0 0.0
2016-Jun-22 18:34N 37°56' E 023°41'0 0.0
2016-Jun-22 17:34N 37°56' E 023°41'3 3.2
2016-Jun-22 16:33N 37°54' E 023°38'1111.3
2016-Jun-22 15:33N 37°47' E 023°27'3 1.1
2016-Jun-22 13:18N 37°45' E 023°26'811.1
2016-Jun-22 12:33N 37°36' E 023°25'7 6.4
2016-Jun-22 11:31N 37°30' E 023°27'5 5.6
2016-Jun-22 10:33N 37°26' E 023°32'6 6.1
2016-Jun-22 09:33N 37°21' E 023°28'0 0.0
2016-Jun-22 08:33N 37°21' E 023°28'1111.1
2016-Jun-22 07:33N 37°32' E 023°32'1212.0
2016-Jun-22 06:33N 37°44' E 023°34'1212.0
2016-Jun-22 05:33N 37°55' E 023°40'2 1.7
2016-Jun-22 04:33N 37°56' E 023°41'0 0.0
2016-Jun-22 03:33N 37°56' E 023°41'0 0.0
2016-Jun-21 22:21N 37°56' E 023°41'0 0.0
2016-Jun-21 21:33N 37°56' E 023°41'0 0.0
2016-Jun-21 20:33N 37°56' E 023°41'0 0.0
2016-Jun-21 19:33N 37°56' E 023°41'0 0.0
2016-Jun-21 18:33N 37°56' E 023°41'0 0.0
2016-Jun-21 17:33N 37°56' E 023°41'5 4.6
2016-Jun-21 16:33N 37°53' E 023°36'1111.3
2016-Jun-21 15:33N 37°46' E 023°25'2 0.7
2016-Jun-21 13:19N 37°45' E 023°26'911.6
2016-Jun-21 12:33N 37°36' E 023°25'6 5.9
2016-Jun-21 11:33N 37°30' E 023°27'6 5.7
2016-Jun-21 10:33N 37°26' E 023°32'6 5.6
2016-Jun-21 09:33N 37°21' E 023°28'0 0.0
2016-Jun-21 08:33N 37°21' E 023°28'10 9.9
2016-Jun-21 07:33N 37°31' E 023°31'1211.4
2016-Jun-21 06:33N 37°42' E 023°33'15 7.8
2016-Jun-21 04:33N 37°56' E 023°41'0 0.0
2016-Jun-21 03:33N 37°56' E 023°41'0 0.0
2016-Jun-20 21:22N 37°56' E 023°41'0 0.0
2016-Jun-20 20:33N 37°56' E 023°41'0 0.0
2016-Jun-20 19:33N 37°56' E 023°41'0 0.0
2016-Jun-20 18:33N 37°56' E 023°41'0 0.0
2016-Jun-20 17:33N 37°56' E 023°41'3 3.2
2016-Jun-20 16:33N 37°54' E 023°38'1211.8
2016-Jun-20 15:33N 37°47' E 023°26'2 2.1
2016-Jun-20 14:33N 37°45' E 023°26'0 0.0
2016-Jun-20 13:33N 37°45' E 023°26'8 8.0
2016-Jun-20 12:33N 37°37' E 023°25'7 6.6
2016-Jun-20 11:31N 37°30' E 023°27'5 5.4
2016-Jun-20 10:33N 37°26' E 023°32'6 6.2
2016-Jun-20 09:33N 37°21' E 023°28'0 0.0
2016-Jun-20 08:33N 37°21' E 023°28'1010.3
2016-Jun-20 07:33N 37°31' E 023°33'1211.6
2016-Jun-20 06:33N 37°42' E 023°35'1211.6
2016-Jun-20 05:33N 37°53' E 023°39'3 3.5
2016-Jun-20 04:33N 37°56' E 023°41'0 0.0
2016-Jun-20 03:33N 37°56' E 023°41'0 0.0
2016-Jun-19 22:07N 37°56' E 023°41'0 0.0
2016-Jun-19 21:33N 37°56' E 023°41'0 0.0
2016-Jun-19 20:33N 37°56' E 023°41'0 0.0
2016-Jun-19 19:16N 37°56' E 023°41'0 0.0
2016-Jun-19 18:33N 37°56' E 023°41'0 0.0
2016-Jun-19 17:33N 37°56' E 023°41'7 6.8
2016-Jun-19 16:33N 37°52' E 023°34'10 7.4
2016-Jun-19 15:12N 37°45' E 023°26'0 0.0
2016-Jun-19 14:33N 37°45' E 023°26'0 0.4
2016-Jun-19 13:33N 37°44' E 023°25'1211.8
2016-Jun-19 12:33N 37°33' E 023°25'3 2.9
2016-Jun-19 11:33N 37°30' E 023°27'7 6.9
2016-Jun-19 10:33N 37°24' E 023°30'3 3.0
2016-Jun-19 09:33N 37°21' E 023°28'0 0.1
2016-Jun-19 08:33N 37°21' E 023°28'1110.9
2016-Jun-19 07:33N 37°32' E 023°32'1111.5
2016-Jun-19 06:33N 37°43' E 023°33'1211.6
2016-Jun-19 05:33N 37°54' E 023°39'  
Track history (hours):
 
Tides and Currents Weather Stations Pressure Air Temp Water Temp Dewpoint Dewpoint Depression Visibility Wind Speed Wind Dir Waves Ship Positions

Platitera Tonouranon

Last reported at 2016-Jun-29 04:34 UTC. Time now 2016-Jun-29 05:42 UTC.
Position N 37°56' E 023°41'.

Length 55 m; draft 3.8 m.

Type: Ship (hazmat cat A). MMSI: 237038200.

Date/timePositionNaut miles runAvg speedWind from/ knotsBaromVisibWave heightAir tempDewpointWater temp
2016-Jun-29 04:34N 37°56' E 023°41'0 0.0
2016-Jun-29 03:33N 37°56' E 023°41'0 0.0
2016-Jun-28 19:33N 37°56' E 023°41'0 0.0
2016-Jun-28 18:33N 37°56' E 023°41'0 0.0
2016-Jun-28 17:33N 37°56' E 023°41'2 2.4
2016-Jun-28 16:33N 37°55' E 023°39'1211.6
2016-Jun-28 15:33N 37°47' E 023°28'3 2.8
2016-Jun-28 14:33N 37°45' E 023°26'0 0.0
2016-Jun-28 13:33N 37°45' E 023°26'8 7.8
2016-Jun-28 12:33N 37°37' E 023°25'7 7.1
2016-Jun-28 11:33N 37°30' E 023°27'5 5.4
2016-Jun-28 10:33N 37°26' E 023°32'6 6.1
2016-Jun-28 09:33N 37°21' E 023°28'0 0.1
2016-Jun-28 08:33N 37°21' E 023°28'1110.6
2016-Jun-28 07:33N 37°31' E 023°32'1111.3
2016-Jun-28 06:33N 37°43' E 023°33'15 7.4
2016-Jun-28 04:33N 37°56' E 023°41'0 0.0
2016-Jun-28 03:32N 37°56' E 023°41'0 0.0
2016-Jun-27 20:34N 37°56' E 023°41'0 0.0
2016-Jun-27 19:34N 37°56' E 023°41'0 0.0
2016-Jun-27 18:34N 37°56' E 023°41'0 0.0
2016-Jun-27 17:33N 37°56' E 023°41'2 2.5
2016-Jun-27 16:33N 37°55' E 023°39'1111.4
2016-Jun-27 15:33N 37°48' E 023°27'3 3.0
2016-Jun-27 14:32N 37°45' E 023°26'0 0.0
2016-Jun-27 13:32N 37°45' E 023°26'7 7.1
2016-Jun-27 12:33N 37°38' E 023°25'8 7.8
2016-Jun-27 11:33N 37°30' E 023°27'5 5.0
2016-Jun-27 10:33N 37°27' E 023°32'6 6.4
2016-Jun-27 09:33N 37°21' E 023°28'0 0.0
2016-Jun-27 08:33N 37°21' E 023°28'1010.5
2016-Jun-27 07:33N 37°31' E 023°32'1111.3
2016-Jun-27 06:33N 37°42' E 023°34'1211.8
2016-Jun-27 05:33N 37°53' E 023°39'3 3.2
2016-Jun-27 04:33N 37°56' E 023°41'0 0.0
2016-Jun-27 03:33N 37°56' E 023°41'0 0.0
2016-Jun-26 20:33N 37°56' E 023°41'0 0.0
2016-Jun-26 19:33N 37°56' E 023°41'0 0.0
2016-Jun-26 18:33N 37°56' E 023°41'0 0.0
2016-Jun-26 17:33N 37°56' E 023°41'7 6.9
2016-Jun-26 16:33N 37°52' E 023°34'10 4.6
2016-Jun-26 14:22N 37°45' E 023°26'0 0.3
2016-Jun-26 13:33N 37°45' E 023°25'1211.7
2016-Jun-26 12:33N 37°34' E 023°30'1110.7
2016-Jun-26 11:33N 37°23' E 023°29'2 2.0
2016-Jun-26 10:33N 37°21' E 023°28'6 5.4
2016-Jun-26 09:25N 37°26' E 023°32'5 6.3
2016-Jun-26 08:33N 37°30' E 023°27'3 2.7
2016-Jun-26 07:32N 37°33' E 023°26'1211.7
2016-Jun-26 06:33N 37°43' E 023°33'1211.9
2016-Jun-26 05:33N 37°53' E 023°39'3 3.1
2016-Jun-26 04:33N 37°56' E 023°41'0 0.0
2016-Jun-26 03:33N 37°56' E 023°41'0 0.0
2016-Jun-25 21:08N 37°56' E 023°41'0 0.0
2016-Jun-25 20:33N 37°56' E 023°41'0 0.0
2016-Jun-25 19:33N 37°56' E 023°41'0 0.0
2016-Jun-25 17:17N 37°56' E 023°41'2 3.1
2016-Jun-25 16:34N 37°54' E 023°40'1111.5
2016-Jun-25 15:33N 37°43' E 023°36'1212.0
2016-Jun-25 14:33N 37°31' E 023°33'1110.7
2016-Jun-25 13:33N 37°21' E 023°28'0 0.1
2016-Jun-25 12:33N 37°21' E 023°28'6 6.5
2016-Jun-25 11:33N 37°27' E 023°32'5 4.9
2016-Jun-25 10:33N 37°30' E 023°27'7 7.4
2016-Jun-25 09:34N 37°37' E 023°25'10 3.2
2016-Jun-25 06:33N 37°47' E 023°26'1211.7
2016-Jun-25 05:34N 37°54' E 023°38'3 3.4
2016-Jun-25 04:34N 37°56' E 023°41'0 0.0
2016-Jun-25 03:34N 37°56' E 023°41'0 0.0
2016-Jun-24 20:20N 37°56' E 023°41'0 0.0
2016-Jun-24 19:33N 37°56' E 023°41'0 0.0
2016-Jun-24 18:33N 37°56' E 023°41'0 0.0
2016-Jun-24 17:33N 37°56' E 023°41'2 1.9
2016-Jun-24 16:33N 37°55' E 023°39'1111.4
2016-Jun-24 15:33N 37°48' E 023°28'4 1.6
2016-Jun-24 13:09N 37°45' E 023°25'711.1
2016-Jun-24 12:33N 37°38' E 023°26'8 8.1
2016-Jun-24 11:33N 37°30' E 023°27'4 4.3
2016-Jun-24 10:33N 37°27' E 023°31'7 6.7
2016-Jun-24 09:31N 37°21' E 023°28'0 0.0
2016-Jun-24 08:33N 37°21' E 023°28'9 9.1
2016-Jun-24 07:33N 37°30' E 023°32'27 9.2
2016-Jun-24 04:33N 37°56' E 023°41'0 0.0
2016-Jun-24 03:33N 37°56' E 023°41'0 0.0
2016-Jun-24 02:33N 37°56' E 023°41'0 0.0
2016-Jun-24 01:33N 37°56' E 023°41'0 0.0
2016-Jun-24 00:33N 37°56' E 023°41'0 0.0
2016-Jun-23 23:33N 37°56' E 023°41'0 0.0
2016-Jun-23 22:33N 37°56' E 023°41'0 0.0
2016-Jun-23 21:33N 37°56' E 023°41'0 0.0
2016-Jun-23 20:33N 37°56' E 023°41'0 0.0
2016-Jun-23 19:33N 37°56' E 023°41'0 0.0
2016-Jun-23 18:33N 37°56' E 023°41'0 0.0
2016-Jun-23 17:33N 37°56' E 023°41'2 2.0
2016-Jun-23 16:33N 37°55' E 023°39'1111.3
2016-Jun-23 15:33N 37°48' E 023°28'4 1.6
2016-Jun-23 13:10N 37°45' E 023°25'711.2
2016-Jun-23 12:33N 37°38' E 023°25'8 7.9
2016-Jun-23 11:33N 37°30' E 023°27'4 4.2
2016-Jun-23 10:33N 37°28' E 023°31'7 4.7
2016-Jun-23 09:04N 37°21' E 023°28'0 0.0
2016-Jun-23 08:32N 37°21' E 023°28'9 9.3
2016-Jun-23 07:33N 37°30' E 023°31'2411.8
2016-Jun-23 05:33N 37°53' E 023°39'4 3.9
2016-Jun-23 04:33N 37°56' E 023°41'0 0.0
2016-Jun-23 03:33N 37°56' E 023°41'0 0.0
2016-Jun-22 21:30N 37°56' E 023°41'0 0.0
2016-Jun-22 20:34N 37°56' E 023°41'0 0.0
2016-Jun-22 19:33N 37°56' E 023°41'0 0.0
2016-Jun-22 18:34N 37°56' E 023°41'0 0.0
2016-Jun-22 17:34N 37°56' E 023°41'3 3.2
2016-Jun-22 16:33N 37°54' E 023°38'1111.3
2016-Jun-22 15:33N 37°47' E 023°27'3 1.1
2016-Jun-22 13:18N 37°45' E 023°26'811.1
2016-Jun-22 12:33N 37°36' E 023°25'7 6.4
2016-Jun-22 11:31N 37°30' E 023°27'5 5.6
2016-Jun-22 10:33N 37°26' E 023°32'6 6.1
2016-Jun-22 09:33N 37°21' E 023°28'0 0.0
2016-Jun-22 08:33N 37°21' E 023°28'1111.1
2016-Jun-22 07:33N 37°32' E 023°32'1212.0
2016-Jun-22 06:33N 37°44' E 023°34'1212.0
2016-Jun-22 05:33N 37°55' E 023°40'2 1.7
2016-Jun-22 04:33N 37°56' E 023°41'0 0.0
2016-Jun-22 03:33N 37°56' E 023°41'0 0.0
2016-Jun-21 22:21N 37°56' E 023°41'0 0.0
2016-Jun-21 21:33N 37°56' E 023°41'0 0.0
2016-Jun-21 20:33N 37°56' E 023°41'0 0.0
2016-Jun-21 19:33N 37°56' E 023°41'0 0.0
2016-Jun-21 18:33N 37°56' E 023°41'0 0.0
2016-Jun-21 17:33N 37°56' E 023°41'5 4.6
2016-Jun-21 16:33N 37°53' E 023°36'1111.3
2016-Jun-21 15:33N 37°46' E 023°25'2 0.7
2016-Jun-21 13:19N 37°45' E 023°26'911.6
2016-Jun-21 12:33N 37°36' E 023°25'6 5.9
2016-Jun-21 11:33N 37°30' E 023°27'6 5.7
2016-Jun-21 10:33N 37°26' E 023°32'6 5.6
2016-Jun-21 09:33N 37°21' E 023°28'0 0.0
2016-Jun-21 08:33N 37°21' E 023°28'10 9.9
2016-Jun-21 07:33N 37°31' E 023°31'1211.4
2016-Jun-21 06:33N 37°42' E 023°33'15 7.8
2016-Jun-21 04:33N 37°56' E 023°41'0 0.0
2016-Jun-21 03:33N 37°56' E 023°41'0 0.0
2016-Jun-20 21:22N 37°56' E 023°41'0 0.0
2016-Jun-20 20:33N 37°56' E 023°41'0 0.0
2016-Jun-20 19:33N 37°56' E 023°41'0 0.0
2016-Jun-20 18:33N 37°56' E 023°41'0 0.0
2016-Jun-20 17:33N 37°56' E 023°41'3 3.2
2016-Jun-20 16:33N 37°54' E 023°38'1211.8
2016-Jun-20 15:33N 37°47' E 023°26'2 2.1
2016-Jun-20 14:33N 37°45' E 023°26'0 0.0
2016-Jun-20 13:33N 37°45' E 023°26'8 8.0
2016-Jun-20 12:33N 37°37' E 023°25'7 6.6
2016-Jun-20 11:31N 37°30' E 023°27'5 5.4
2016-Jun-20 10:33N 37°26' E 023°32'6 6.2
2016-Jun-20 09:33N 37°21' E 023°28'0 0.0
2016-Jun-20 08:33N 37°21' E 023°28'1010.3
2016-Jun-20 07:33N 37°31' E 023°33'1211.6
2016-Jun-20 06:33N 37°42' E 023°35'1211.6
2016-Jun-20 05:33N 37°53' E 023°39'3 3.5
2016-Jun-20 04:33N 37°56' E 023°41'0 0.0
2016-Jun-20 03:33N 37°56' E 023°41'0 0.0
2016-Jun-19 22:07N 37°56' E 023°41'0 0.0
2016-Jun-19 21:33N 37°56' E 023°41'0 0.0
2016-Jun-19 20:33N 37°56' E 023°41'0 0.0
2016-Jun-19 19:16N 37°56' E 023°41'0 0.0
2016-Jun-19 18:33N 37°56' E 023°41'0 0.0
2016-Jun-19 17:33N 37°56' E 023°41'7 6.8
2016-Jun-19 16:33N 37°52' E 023°34'10 7.4
2016-Jun-19 15:12N 37°45' E 023°26'0 0.0
2016-Jun-19 14:33N 37°45' E 023°26'0 0.4
2016-Jun-19 13:33N 37°44' E 023°25'1211.8
2016-Jun-19 12:33N 37°33' E 023°25'3 2.9
2016-Jun-19 11:33N 37°30' E 023°27'7 6.9
2016-Jun-19 10:33N 37°24' E 023°30'3 3.0
2016-Jun-19 09:33N 37°21' E 023°28'0 0.1
2016-Jun-19 08:33N 37°21' E 023°28'1110.9
2016-Jun-19 07:33N 37°32' E 023°32'1111.5
2016-Jun-19 06:33N 37°43' E 023°33'1211.6
2016-Jun-19 05:33N 37°54' E 023°39'  

Dump ship's entire track history